This is the latest recevied weather packets stored in our database for station/object DK1ZX-10. If no packets are shown the sender has not sent any weather packets the latest 10 day(s).
| Time | Temp. | Humidity | Pressure | Rain* | Wind** | Luminosity | Snow |
|---|---|---|---|---|---|---|---|
| 1777542488 | 22.22° C | 13% | 1029.1 hPa | - | - | - | - |
| 1777541288 | 26.11° C | 9% | 1029.1 hPa | - | - | - | - |
| 1777540088 | 31.11° C | 7% | 1029.3 hPa | - | - | - | - |
| 1777538888 | 28.89° C | 8% | 1029.5 hPa | - | - | - | - |
| 1777537688 | 30.56° C | 7% | 1029.5 hPa | - | - | - | - |
| 1777536488 | 27.22° C | 9% | 1029.6 hPa | - | - | - | - |
| 1777535288 | 28.33° C | 8% | 1029.3 hPa | - | - | - | - |
| 1777534088 | 31.11° C | 7% | 1029.4 hPa | - | - | - | - |
| 1777532887 | 30° C | 8% | 1029.7 hPa | - | - | - | - |
| 1777530492 | 28.33° C | 8% | 1029.8 hPa | - | - | - | - |
| 1777529292 | 24.44° C | 11% | 1029.7 hPa | - | - | - | - |
| 1777528092 | 18.33° C | 15% | 1029.7 hPa | - | - | - | - |
| 1777526892 | 15.56° C | 19% | 1029.4 hPa | - | - | - | - |
| 1777525692 | 15.56° C | 18% | 1029.3 hPa | - | - | - | - |
| 1777524492 | 15° C | 19% | 1029.1 hPa | - | - | - | - |
| 1777523292 | 2.78° C | 38% | 1029.4 hPa | - | - | - | - |
| 1777522091 | 2.78° C | 38% | 1029.2 hPa | - | - | - | - |
| 1777520891 | 2.78° C | 38% | 1029.1 hPa | - | - | - | - |
| 1777519691 | 2.78° C | 36% | 1029 hPa | - | - | - | - |
| 1777518491 | 2.22° C | 38% | 1028.9 hPa | - | - | - | - |
| 1777517291 | 2.22° C | 39% | 1028.8 hPa | - | - | - | - |
| 1777516091 | 1.67° C | 40% | 1028.8 hPa | - | - | - | - |
| 1777514891 | 2.22° C | 38% | 1028.9 hPa | - | - | - | - |
| 1777513690 | 2.22° C | 39% | 1028.9 hPa | - | - | - | - |
| 1777512490 | 2.78° C | 37% | 1028.7 hPa | - | - | - | - |
* Rain since midnight (hover to see other rain measurements)
** Current wind speed in m/s (hover to see current wind gust speed)